[x] [x]
.:Aeroklub Partizánske:. |  .:Fotogaléria:. |  .:Videogaléria:. |  .:Foto týždňa:. |  .:Kniha návštev:. |  .:Linky:. |  .:Moje konto:.
 MENU [x]

 METEO [x]

 FotoGaléria [x]

 Slnko [x]
LZPT Partizánske
48°37'N 18°20'E
Východ: 7:21 AM
Západ: 4:40 PM
LZIB Bratislava
48°10'N 17°12'E
Východ: 7:24 AM
Západ: 4:45 PM
LZKZ Košice
48°39'N 21°14'E
Východ: 7:09 AM
Západ: 4:28 PM

 Jazyky [x]
Vyberte jazyk rozhrania:

Slovak English German Polish


  SPRÁVY METAR - SLOVENSKO
Bratislava-IvankaLZIB 301030Z 02003KT 0600 R31/0700N R22/0600N +SN OVC002 00/M01 Q0978 R13/6/0392 NOSIGdekóduj
Kamenica nad CirochouLZKC 011200Z 21006KT 150V290 9999 FEW053 04/M07 Q1019dekóduj
KošiceLZKZ 301030Z VRB01KT 9999 FEW010 BKN027 01/00 Q0984 NOSIGdekóduj
Poprad - TatryLZTT 301030Z 13005KT 100V180 4000 -SN BR FEW008 BKN016 OVC030 M01/M02 Q0980 BECMG 3000 -SN BR SCT010 BKN015dekóduj
LučenecLZLU 141110Z AUTO 08009KT //// ////// 02/01 Q0994dekóduj
NitraLZNI 312000Z /////KT CAVOK 01/M02 Q1022dekóduj
PrievidzaLZPE 312000Z /////KT CAVOK M03/M04 Q1022dekóduj
PiešťanyLZPP 301030Z 14008KT 110V180 2000 SN SCT007 OVC018 01/00 Q0978dekóduj
SliačLZSL 301030Z 11005KT 040V160 2500 -SN BR SCT004 OVC011 01/00 Q0980dekóduj
ŽilinaLZZI 301030Z 27005KT 9999 BKN025 03/M01 Q0978dekóduj
 FreeFly INFO [x]
COROWA 2009


COROWA 2009


COROWA 2009



 LZPT webcam [x]

 Foto týždňa [x]

 KBO SNA [x]

 Login [x]
Užívateľské meno

Heslo


Ešte nemáš konto? Môžeš si ho vytvoriť. Registrovaný užívateľ má množstvo výhod, napr. posielanie okamžitých správ iným užívateľom, posielanie komentárov s vlastným menom, možnosť pridávať fotografie do galérie...

 Kto je online [x]
Momentálne je online 58 hostí a 0 členov.

Ste anonymný užívateľ. Zaregistrovať sa môžete tu

DETAILY

 Linky [x]

 Počítadlo návštev [x]
Zaznamenali sme
33669454
strán zobrazených od júna 2003

Počet dnešných unikátnych IP adries:
0



www.freefly.sk
Powered by SzMsoft ©2003-2005. Polish translations by Cezary Dąbek. Flying server www.freefly.sk is administrated by maro@freefly.sk - www.artweb.freefly.sk
PHP-Nuke Copyright © 2004 by Francisco Burzi. This is free software, and you may redistribute it under the GPL. PHP-Nuke comes with absolutely no warranty, for details, see the license.